Neath, United Kingdom
Current Conditions -  °F | °C
As of 11:50 AM on Friday 24 Oct 2014 (Local Time) from EGDX Reporting Station
Drizzle Drizzle  
Wind Chill: 59°   Ceiling: 500
Heat Index: 59°   Visibility: 2.1mi
Dew Point: 57°   Wind: 6mph
Humidity: 94%   Direction: 250°WSW
Pressure: 29.91"   Gusts: NA
Location:  51.66°N, 3.8°W
Report Text: EGDX 241050Z AUTO 25005KT 3400 +DZ BKN005/// 15/14 Q1013
Loading
Personal Weather Stations






























Interactive Weather Map
Tropical Storm Tracking
New forecast layout! Learn more

10-Day Weather Forecast

Advertisements
Track Severe Weather on mobile